sensor_id;sensor_type;location;lat;lon;timestamp;temperature;humidity
6486;DHT22;3276;48.490;9.222;2023-04-24T00:00:17;11.70;12.10
6486;DHT22;3276;48.490;9.222;2023-04-24T00:02:43;11.70;12.20
6486;DHT22;3276;48.490;9.222;2023-04-24T00:05:14;11.60;12.10
6486;DHT22;3276;48.490;9.222;2023-04-24T00:07:40;11.60;12.60
6486;DHT22;3276;48.490;9.222;2023-04-24T00:10:07;11.70;12.50
6486;DHT22;3276;48.490;9.222;2023-04-24T00:12:33;11.60;12.50
6486;DHT22;3276;48.490;9.222;2023-04-24T00:14:59;11.70;12.50
6486;DHT22;3276;48.490;9.222;2023-04-24T00:17:24;11.70;12.50
6486;DHT22;3276;48.490;9.222;2023-04-24T00:19:50;11.60;12.70
6486;DHT22;3276;48.490;9.222;2023-04-24T00:22:17;11.60;12.10
6486;DHT22;3276;48.490;9.222;2023-04-24T00:24:43;11.60;12.60
6486;DHT22;3276;48.490;9.222;2023-04-24T00:27:09;11.70;11.20
6486;DHT22;3276;48.490;9.222;2023-04-24T00:29:34;11.70;12.50
6486;DHT22;3276;48.490;9.222;2023-04-24T00:32:00;11.70;12.40
6486;DHT22;3276;48.490;9.222;2023-04-24T00:34:25;11.70;12.30
6486;DHT22;3276;48.490;9.222;2023-04-24T00:36:51;11.80;13.10
6486;DHT22;3276;48.490;9.222;2023-04-24T00:39:21;11.80;12.50
6486;DHT22;3276;48.490;9.222;2023-04-24T00:41:47;11.90;12.30
6486;DHT22;3276;48.490;9.222;2023-04-24T00:44:14;12.00;12.00
6486;DHT22;3276;48.490;9.222;2023-04-24T00:46:39;12.00;12.10
6486;DHT22;3276;48.490;9.222;2023-04-24T00:49:05;12.00;12.20
6486;DHT22;3276;48.490;9.222;2023-04-24T00:51:31;12.10;11.40
6486;DHT22;3276;48.490;9.222;2023-04-24T00:53:58;12.10;11.60
6486;DHT22;3276;48.490;9.222;2023-04-24T00:56:24;12.10;11.10
6486;DHT22;3276;48.490;9.222;2023-04-24T00:58:50;12.10;11.40
6486;DHT22;3276;48.490;9.222;2023-04-24T01:01:16;12.10;11.10
6486;DHT22;3276;48.490;9.222;2023-04-24T01:03:42;12.10;11.10
6486;DHT22;3276;48.490;9.222;2023-04-24T01:06:08;12.00;11.00
6486;DHT22;3276;48.490;9.222;2023-04-24T01:08:34;12.10;11.50
6486;DHT22;3276;48.490;9.222;2023-04-24T01:11:03;12.10;11.40
6486;DHT22;3276;48.490;9.222;2023-04-24T01:13:29;12.20;11.80
6486;DHT22;3276;48.490;9.222;2023-04-24T01:15:54;12.20;12.00
6486;DHT22;3276;48.490;9.222;2023-04-24T01:18:20;12.10;13.10
6486;DHT22;3276;48.490;9.222;2023-04-24T01:20:48;12.10;14.40
6486;DHT22;3276;48.490;9.222;2023-04-24T01:23:16;12.00;14.90
6486;DHT22;3276;48.490;9.222;2023-04-24T01:25:42;12.10;15.50
6486;DHT22;3276;48.490;9.222;2023-04-24T01:28:08;12.10;16.00
6486;DHT22;3276;48.490;9.222;2023-04-24T01:30:34;12.10;16.20
6486;DHT22;3276;48.490;9.222;2023-04-24T01:32:59;12.10;16.60
6486;DHT22;3276;48.490;9.222;2023-04-24T01:35:25;12.10;17.50
6486;DHT22;3276;48.490;9.222;2023-04-24T01:37:51;12.10;17.30
6486;DHT22;3276;48.490;9.222;2023-04-24T01:40:17;12.10;17.10
6486;DHT22;3276;48.490;9.222;2023-04-24T01:42:43;12.00;17.20
6486;DHT22;3276;48.490;9.222;2023-04-24T01:45:11;11.90;17.50
6486;DHT22;3276;48.490;9.222;2023-04-24T01:47:38;11.80;18.60
6486;DHT22;3276;48.490;9.222;2023-04-24T01:50:05;11.60;19.80
6486;DHT22;3276;48.490;9.222;2023-04-24T01:52:31;11.50;20.80
6486;DHT22;3276;48.490;9.222;2023-04-24T01:55:00;11.50;21.70
6486;DHT22;3276;48.490;9.222;2023-04-24T01:57:26;11.40;22.50
6486;DHT22;3276;48.490;9.222;2023-04-24T01:59:51;11.30;23.50
6486;DHT22;3276;48.490;9.222;2023-04-24T02:02:17;11.30;23.50
6486;DHT22;3276;48.490;9.222;2023-04-24T02:04:43;11.20;23.40
6486;DHT22;3276;48.490;9.222;2023-04-24T02:07:08;11.20;23.80
6486;DHT22;3276;48.490;9.222;2023-04-24T02:09:34;11.30;23.60
6486;DHT22;3276;48.490;9.222;2023-04-24T02:12:00;11.30;23.50
6486;DHT22;3276;48.490;9.222;2023-04-24T02:14:26;11.30;24.10
6486;DHT22;3276;48.490;9.222;2023-04-24T02:16:51;11.30;23.70
6486;DHT22;3276;48.490;9.222;2023-04-24T02:19:18;11.30;24.60
6486;DHT22;3276;48.490;9.222;2023-04-24T02:21:44;11.30;24.90
6486;DHT22;3276;48.490;9.222;2023-04-24T02:24:09;11.30;25.50
6486;DHT22;3276;48.490;9.222;2023-04-24T02:26:35;11.30;25.50
6486;DHT22;3276;48.490;9.222;2023-04-24T02:29:01;11.20;26.20
6486;DHT22;3276;48.490;9.222;2023-04-24T02:31:27;11.30;26.30
6486;DHT22;3276;48.490;9.222;2023-04-24T02:33:52;11.20;27.30
6486;DHT22;3276;48.490;9.222;2023-04-24T02:36:18;11.20;27.60
6486;DHT22;3276;48.490;9.222;2023-04-24T02:38:43;11.20;27.60
6486;DHT22;3276;48.490;9.222;2023-04-24T02:41:09;11.20;27.60
6486;DHT22;3276;48.490;9.222;2023-04-24T02:43:34;11.10;28.40
6486;DHT22;3276;48.490;9.222;2023-04-24T02:46:00;11.10;29.40
6486;DHT22;3276;48.490;9.222;2023-04-24T02:48:26;11.00;30.20
6486;DHT22;3276;48.490;9.222;2023-04-24T02:50:51;10.90;31.80
6486;DHT22;3276;48.490;9.222;2023-04-24T02:53:17;10.80;31.60
6486;DHT22;3276;48.490;9.222;2023-04-24T02:55:42;10.80;32.90
6486;DHT22;3276;48.490;9.222;2023-04-24T02:58:08;10.80;33.70
6486;DHT22;3276;48.490;9.222;2023-04-24T03:00:34;10.80;33.60
6486;DHT22;3276;48.490;9.222;2023-04-24T03:02:59;10.90;33.20
6486;DHT22;3276;48.490;9.222;2023-04-24T03:05:25;10.90;32.90
6486;DHT22;3276;48.490;9.222;2023-04-24T03:07:52;10.90;32.70
6486;DHT22;3276;48.490;9.222;2023-04-24T03:10:18;10.90;31.70
6486;DHT22;3276;48.490;9.222;2023-04-24T03:12:44;10.90;31.70
6486;DHT22;3276;48.490;9.222;2023-04-24T03:15:09;11.00;32.60
6486;DHT22;3276;48.490;9.222;2023-04-24T03:17:35;10.90;31.20
6486;DHT22;3276;48.490;9.222;2023-04-24T03:20:02;10.90;31.60
6486;DHT22;3276;48.490;9.222;2023-04-24T03:22:28;10.90;31.00
6486;DHT22;3276;48.490;9.222;2023-04-24T03:24:53;10.80;32.00
6486;DHT22;3276;48.490;9.222;2023-04-24T03:27:20;10.80;31.70
6486;DHT22;3276;48.490;9.222;2023-04-24T03:29:45;10.80;33.10
6486;DHT22;3276;48.490;9.222;2023-04-24T03:32:11;10.70;33.10
6486;DHT22;3276;48.490;9.222;2023-04-24T03:34:36;10.60;34.20
6486;DHT22;3276;48.490;9.222;2023-04-24T03:37:02;10.60;33.90
6486;DHT22;3276;48.490;9.222;2023-04-24T03:39:27;10.50;35.50
6486;DHT22;3276;48.490;9.222;2023-04-24T03:41:53;10.50;34.60
6486;DHT22;3276;48.490;9.222;2023-04-24T03:44:19;10.40;35.00
6486;DHT22;3276;48.490;9.222;2023-04-24T03:46:45;10.40;35.00
6486;DHT22;3276;48.490;9.222;2023-04-24T03:49:10;10.40;35.20
6486;DHT22;3276;48.490;9.222;2023-04-24T03:51:36;10.40;33.10
6486;DHT22;3276;48.490;9.222;2023-04-24T03:54:02;10.30;33.20
6486;DHT22;3276;48.490;9.222;2023-04-24T03:56:28;10.20;34.50
6486;DHT22;3276;48.490;9.222;2023-04-24T03:58:54;10.30;34.90
6486;DHT22;3276;48.490;9.222;2023-04-24T04:01:19;10.30;34.20
6486;DHT22;3276;48.490;9.222;2023-04-24T04:03:46;10.20;36.30
6486;DHT22;3276;48.490;9.222;2023-04-24T04:06:11;10.30;34.80
6486;DHT22;3276;48.490;9.222;2023-04-24T04:08:38;10.30;36.30
6486;DHT22;3276;48.490;9.222;2023-04-24T04:11:03;10.30;35.70
6486;DHT22;3276;48.490;9.222;2023-04-24T04:13:29;10.30;35.60
6486;DHT22;3276;48.490;9.222;2023-04-24T04:15:55;10.30;35.50
6486;DHT22;3276;48.490;9.222;2023-04-24T04:18:20;10.30;36.40
6486;DHT22;3276;48.490;9.222;2023-04-24T04:20:46;10.30;37.60
6486;DHT22;3276;48.490;9.222;2023-04-24T04:23:11;10.20;38.00
6486;DHT22;3276;48.490;9.222;2023-04-24T04:25:37;10.30;39.10
6486;DHT22;3276;48.490;9.222;2023-04-24T04:28:03;10.20;38.10
6486;DHT22;3276;48.490;9.222;2023-04-24T04:30:28;10.30;38.50
6486;DHT22;3276;48.490;9.222;2023-04-24T04:32:58;10.40;38.80
6486;DHT22;3276;48.490;9.222;2023-04-24T04:35:23;10.40;39.00
6486;DHT22;3276;48.490;9.222;2023-04-24T04:37:50;10.40;38.80
6486;DHT22;3276;48.490;9.222;2023-04-24T04:40:16;10.50;38.30
6486;DHT22;3276;48.490;9.222;2023-04-24T04:42:42;10.50;39.00
6486;DHT22;3276;48.490;9.222;2023-04-24T04:45:11;10.60;38.20
6486;DHT22;3276;48.490;9.222;2023-04-24T04:47:37;10.60;38.60
6486;DHT22;3276;48.490;9.222;2023-04-24T04:50:03;10.60;37.80
6486;DHT22;3276;48.490;9.222;2023-04-24T04:52:30;10.60;38.00
6486;DHT22;3276;48.490;9.222;2023-04-24T04:54:56;10.70;37.40
6486;DHT22;3276;48.490;9.222;2023-04-24T04:57:22;10.60;36.70
6486;DHT22;3276;48.490;9.222;2023-04-24T04:59:47;10.50;36.60
6486;DHT22;3276;48.490;9.222;2023-04-24T05:02:13;10.40;38.80
6486;DHT22;3276;48.490;9.222;2023-04-24T05:04:38;10.20;42.40
6486;DHT22;3276;48.490;9.222;2023-04-24T05:07:04;10.00;41.80
6486;DHT22;3276;48.490;9.222;2023-04-24T05:09:29;9.80;43.00
6486;DHT22;3276;48.490;9.222;2023-04-24T05:11:55;9.70;45.00
6486;DHT22;3276;48.490;9.222;2023-04-24T05:14:21;9.60;47.00
6486;DHT22;3276;48.490;9.222;2023-04-24T05:16:47;9.60;48.00
6486;DHT22;3276;48.490;9.222;2023-04-24T05:19:12;9.60;47.00
6486;DHT22;3276;48.490;9.222;2023-04-24T05:21:39;9.50;43.10
6486;DHT22;3276;48.490;9.222;2023-04-24T05:24:05;9.50;43.40
6486;DHT22;3276;48.490;9.222;2023-04-24T05:26:31;9.50;39.10
6486;DHT22;3276;48.490;9.222;2023-04-24T05:28:57;9.40;41.80
6486;DHT22;3276;48.490;9.222;2023-04-24T05:31:22;9.30;40.30
6486;DHT22;3276;48.490;9.222;2023-04-24T05:33:48;9.30;37.80
6486;DHT22;3276;48.490;9.222;2023-04-24T05:36:13;9.30;38.30
6486;DHT22;3276;48.490;9.222;2023-04-24T05:38:39;9.30;38.70
6486;DHT22;3276;48.490;9.222;2023-04-24T05:41:05;9.20;38.50
6486;DHT22;3276;48.490;9.222;2023-04-24T05:43:30;9.10;40.70
6486;DHT22;3276;48.490;9.222;2023-04-24T05:45:56;9.10;40.70
6486;DHT22;3276;48.490;9.222;2023-04-24T05:48:21;9.00;39.10
6486;DHT22;3276;48.490;9.222;2023-04-24T05:50:48;8.90;34.60
6486;DHT22;3276;48.490;9.222;2023-04-24T05:53:13;9.00;37.60
6486;DHT22;3276;48.490;9.222;2023-04-24T05:55:39;9.10;38.00
6486;DHT22;3276;48.490;9.222;2023-04-24T05:58:05;9.30;35.90
6486;DHT22;3276;48.490;9.222;2023-04-24T06:00:30;9.30;35.70
6486;DHT22;3276;48.490;9.222;2023-04-24T06:02:56;9.40;34.20
6486;DHT22;3276;48.490;9.222;2023-04-24T06:05:22;9.50;33.70
6486;DHT22;3276;48.490;9.222;2023-04-24T06:07:48;9.60;32.20
6486;DHT22;3276;48.490;9.222;2023-04-24T06:10:13;9.90;30.90
6486;DHT22;3276;48.490;9.222;2023-04-24T06:12:39;10.10;29.00
6486;DHT22;3276;48.490;9.222;2023-04-24T06:15:05;10.40;27.00
6486;DHT22;3276;48.490;9.222;2023-04-24T06:17:31;10.50;25.80
6486;DHT22;3276;48.490;9.222;2023-04-24T06:19:57;10.70;25.10
6486;DHT22;3276;48.490;9.222;2023-04-24T06:22:23;11.10;23.30
6486;DHT22;3276;48.490;9.222;2023-04-24T06:27:14;11.80;20.30
6486;DHT22;3276;48.490;9.222;2023-04-24T06:29:40;15.10;10.80
6486;DHT22;3276;48.490;9.222;2023-04-24T06:32:05;14.90;9.00
6486;DHT22;3276;48.490;9.222;2023-04-24T06:34:31;14.60;8.90
6486;DHT22;3276;48.490;9.222;2023-04-24T06:36:58;13.80;10.50
6486;DHT22;3276;48.490;9.222;2023-04-24T06:39:23;15.30;10.50
6486;DHT22;3276;48.490;9.222;2023-04-24T06:41:49;17.60;4.50
6486;DHT22;3276;48.490;9.222;2023-04-24T06:44:14;20.20;2.90
6486;DHT22;3276;48.490;9.222;2023-04-24T06:46:41;23.30;1.00
6486;DHT22;3276;48.490;9.222;2023-04-24T06:56:25;23.60;1.00
6486;DHT22;3276;48.490;9.222;2023-04-24T06:58:51;23.20;1.00
6486;DHT22;3276;48.490;9.222;2023-04-24T07:01:17;24.50;1.00
6486;DHT22;3276;48.490;9.222;2023-04-24T07:03:43;24.00;1.00
6486;DHT22;3276;48.490;9.222;2023-04-24T07:06:09;21.80;1.00
6486;DHT22;3276;48.490;9.222;2023-04-24T07:08:36;20.40;1.00
6486;DHT22;3276;48.490;9.222;2023-04-24T07:11:02;20.60;1.00
6486;DHT22;3276;48.490;9.222;2023-04-24T07:13:27;21.90;1.00
6486;DHT22;3276;48.490;9.222;2023-04-24T07:15:53;21.80;1.00
6486;DHT22;3276;48.490;9.222;2023-04-24T07:18:20;19.80;1.00
6486;DHT22;3276;48.490;9.222;2023-04-24T07:20:46;19.30;1.00
6486;DHT22;3276;48.490;9.222;2023-04-24T07:23:12;17.40;1.00
6486;DHT22;3276;48.490;9.222;2023-04-24T07:25:37;16.40;1.00
6486;DHT22;3276;48.490;9.222;2023-04-24T07:28:04;16.20;1.80
6486;DHT22;3276;48.490;9.222;2023-04-24T07:30:30;16.10;1.50
6486;DHT22;3276;48.490;9.222;2023-04-24T07:32:56;15.40;3.50
6486;DHT22;3276;48.490;9.222;2023-04-24T07:35:21;15.00;4.10
6486;DHT22;3276;48.490;9.222;2023-04-24T07:37:47;14.00;6.80
6486;DHT22;3276;48.490;9.222;2023-04-24T07:40:13;13.30;9.70
6486;DHT22;3276;48.490;9.222;2023-04-24T07:42:39;12.30;13.80
6486;DHT22;3276;48.490;9.222;2023-04-24T07:45:05;11.90;16.60
6486;DHT22;3276;48.490;9.222;2023-04-24T07:47:32;11.80;18.70
6486;DHT22;3276;48.490;9.222;2023-04-24T07:49:58;12.10;18.60
6486;DHT22;3276;48.490;9.222;2023-04-24T07:52:24;12.60;18.20
6486;DHT22;3276;48.490;9.222;2023-04-24T07:54:50;13.20;16.80
6486;DHT22;3276;48.490;9.222;2023-04-24T07:57:16;13.70;13.40
6486;DHT22;3276;48.490;9.222;2023-04-24T07:59:41;13.50;11.60
6486;DHT22;3276;48.490;9.222;2023-04-24T08:02:07;13.00;11.70
6486;DHT22;3276;48.490;9.222;2023-04-24T08:04:33;12.80;8.80
6486;DHT22;3276;48.490;9.222;2023-04-24T08:06:59;12.90;11.50
6486;DHT22;3276;48.490;9.222;2023-04-24T08:09:24;12.90;11.70
6486;DHT22;3276;48.490;9.222;2023-04-24T08:11:50;13.30;12.80
6486;DHT22;3276;48.490;9.222;2023-04-24T08:14:15;13.50;12.10
6486;DHT22;3276;48.490;9.222;2023-04-24T08:16:41;13.50;8.70
6486;DHT22;3276;48.490;9.222;2023-04-24T08:19:07;13.80;9.70
6486;DHT22;3276;48.490;9.222;2023-04-24T08:21:33;13.40;8.70
6486;DHT22;3276;48.490;9.222;2023-04-24T08:23:58;14.60;8.40
6486;DHT22;3276;48.490;9.222;2023-04-24T08:26:24;17.10;3.30
6486;DHT22;3276;48.490;9.222;2023-04-24T08:28:50;19.10;1.00
6486;DHT22;3276;48.490;9.222;2023-04-24T08:31:15;18.00;1.00
6486;DHT22;3276;48.490;9.222;2023-04-24T08:33:41;15.90;1.00
6486;DHT22;3276;48.490;9.222;2023-04-24T08:36:07;14.30;1.00
6486;DHT22;3276;48.490;9.222;2023-04-24T08:38:33;13.20;1.20
6486;DHT22;3276;48.490;9.222;2023-04-24T08:41:00;13.00;2.90
6486;DHT22;3276;48.490;9.222;2023-04-24T08:43:26;12.60;3.70
6486;DHT22;3276;48.490;9.222;2023-04-24T08:45:53;12.20;3.60
6486;DHT22;3276;48.490;9.222;2023-04-24T08:48:21;12.30;4.20
6486;DHT22;3276;48.490;9.222;2023-04-24T08:50:49;12.30;4.90
6486;DHT22;3276;48.490;9.222;2023-04-24T08:53:15;11.90;4.50
6486;DHT22;3276;48.490;9.222;2023-04-24T08:55:42;11.70;5.00
6486;DHT22;3276;48.490;9.222;2023-04-24T08:58:08;11.70;5.70
6486;DHT22;3276;48.490;9.222;2023-04-24T09:00:34;11.60;3.30
6486;DHT22;3276;48.490;9.222;2023-04-24T09:03:00;11.80;4.10
6486;DHT22;3276;48.490;9.222;2023-04-24T09:05:27;12.10;3.60
6486;DHT22;3276;48.490;9.222;2023-04-24T09:07:56;12.10;2.10
6486;DHT22;3276;48.490;9.222;2023-04-24T09:10:23;12.10;2.50
6486;DHT22;3276;48.490;9.222;2023-04-24T09:12:51;12.20;2.20
6486;DHT22;3276;48.490;9.222;2023-04-24T09:15:20;12.40;2.30
6486;DHT22;3276;48.490;9.222;2023-04-24T09:17:46;12.50;2.40
6486;DHT22;3276;48.490;9.222;2023-04-24T09:20:12;12.60;2.50
6486;DHT22;3276;48.490;9.222;2023-04-24T09:22:38;12.60;2.50
6486;DHT22;3276;48.490;9.222;2023-04-24T09:25:05;12.60;2.50
6486;DHT22;3276;48.490;9.222;2023-04-24T09:27:32;12.40;2.30
6486;DHT22;3276;48.490;9.222;2023-04-24T09:29:58;12.40;1.40
6486;DHT22;3276;48.490;9.222;2023-04-24T09:32:25;12.50;2.40
6486;DHT22;3276;48.490;9.222;2023-04-24T09:35:12;12.60;1.00
6486;DHT22;3276;48.490;9.222;2023-04-24T09:37:38;12.40;1.00
6486;DHT22;3276;48.490;9.222;2023-04-24T09:40:17;12.30;2.10
6486;DHT22;3276;48.490;9.222;2023-04-24T09:42:51;12.30;2.10
6486;DHT22;3276;48.490;9.222;2023-04-24T09:45:17;12.60;2.30
6486;DHT22;3276;48.490;9.222;2023-04-24T10:02:39;12.30;2.30
6486;DHT22;3276;48.490;9.222;2023-04-24T10:05:05;13.10;1.00
6486;DHT22;3276;48.490;9.222;2023-04-24T10:07:32;13.40;1.00
6486;DHT22;3276;48.490;9.222;2023-04-24T10:09:58;13.50;1.00
6486;DHT22;3276;48.490;9.222;2023-04-24T10:12:25;13.60;1.40
6486;DHT22;3276;48.490;9.222;2023-04-24T10:14:52;14.00;1.00
6486;DHT22;3276;48.490;9.222;2023-04-24T10:17:18;13.90;1.00
6486;DHT22;3276;48.490;9.222;2023-04-24T10:19:46;13.60;1.00
6486;DHT22;3276;48.490;9.222;2023-04-24T10:22:13;13.30;1.10
6486;DHT22;3276;48.490;9.222;2023-04-24T10:24:41;13.10;1.30
6486;DHT22;3276;48.490;9.222;2023-04-24T10:27:08;13.50;1.10
6486;DHT22;3276;48.490;9.222;2023-04-24T10:29:35;13.60;1.00
6486;DHT22;3276;48.490;9.222;2023-04-24T10:32:01;13.90;1.00
6486;DHT22;3276;48.490;9.222;2023-04-24T10:54:29;13.50;1.00
6486;DHT22;3276;48.490;9.222;2023-04-24T10:59:40;13.80;1.00
6486;DHT22;3276;48.490;9.222;2023-04-24T11:02:08;13.20;1.00
6486;DHT22;3276;48.490;9.222;2023-04-24T11:04:33;13.10;10.50
6486;DHT22;3276;48.490;9.222;2023-04-24T11:07:00;13.10;9.30
6486;DHT22;3276;48.490;9.222;2023-04-24T11:09:27;13.20;9.40
6486;DHT22;3276;48.490;9.222;2023-04-24T11:14:29;12.70;9.10
6486;DHT22;3276;48.490;9.222;2023-04-24T11:16:54;12.60;7.50
6486;DHT22;3276;48.490;9.222;2023-04-24T11:19:23;13.00;7.30
6486;DHT22;3276;48.490;9.222;2023-04-24T11:22:04;13.30;8.50
6486;DHT22;3276;48.490;9.222;2023-04-24T11:29:42;13.40;1.00
6486;DHT22;3276;48.490;9.222;2023-04-24T11:32:18;13.80;1.00
6486;DHT22;3276;48.490;9.222;2023-04-24T11:34:46;13.80;1.00
6486;DHT22;3276;48.490;9.222;2023-04-24T11:37:13;14.00;1.00
6486;DHT22;3276;48.490;9.222;2023-04-24T11:39:38;14.10;1.00
6486;DHT22;3276;48.490;9.222;2023-04-24T11:42:04;14.80;1.00
6486;DHT22;3276;48.490;9.222;2023-04-24T11:44:31;14.40;1.00
6486;DHT22;3276;48.490;9.222;2023-04-24T11:46:58;14.20;1.00
6486;DHT22;3276;48.490;9.222;2023-04-24T11:49:24;14.10;1.00
6486;DHT22;3276;48.490;9.222;2023-04-24T11:51:49;13.50;1.00
6486;DHT22;3276;48.490;9.222;2023-04-24T11:54:15;13.20;1.00
6486;DHT22;3276;48.490;9.222;2023-04-24T11:56:46;13.20;1.00
6486;DHT22;3276;48.490;9.222;2023-04-24T11:59:12;13.40;1.00
6486;DHT22;3276;48.490;9.222;2023-04-24T12:01:46;13.20;1.00
6486;DHT22;3276;48.490;9.222;2023-04-24T12:04:12;13.40;1.00
6486;DHT22;3276;48.490;9.222;2023-04-24T12:06:38;13.50;1.00
6486;DHT22;3276;48.490;9.222;2023-04-24T12:09:04;13.70;1.00
6486;DHT22;3276;48.490;9.222;2023-04-24T12:11:30;13.60;1.00
6486;DHT22;3276;48.490;9.222;2023-04-24T12:13:56;13.40;1.00
6486;DHT22;3276;48.490;9.222;2023-04-24T12:16:22;13.40;1.00
6486;DHT22;3276;48.490;9.222;2023-04-24T12:18:50;13.40;1.00
6486;DHT22;3276;48.490;9.222;2023-04-24T12:21:21;13.40;1.00
6486;DHT22;3276;48.490;9.222;2023-04-24T14:11:19;13.10;1.00
6486;DHT22;3276;48.490;9.222;2023-04-24T14:13:45;13.90;1.00
6486;DHT22;3276;48.490;9.222;2023-04-24T14:16:11;13.70;1.00
6486;DHT22;3276;48.490;9.222;2023-04-24T16:13:14;13.70;1.00
6486;DHT22;3276;48.490;9.222;2023-04-24T16:15:40;13.00;1.00
6486;DHT22;3276;48.490;9.222;2023-04-24T16:18:06;13.20;1.00
6486;DHT22;3276;48.490;9.222;2023-04-24T16:20:31;13.10;1.00
6486;DHT22;3276;48.490;9.222;2023-04-24T16:22:57;13.10;1.00
6486;DHT22;3276;48.490;9.222;2023-04-24T16:25:23;13.00;1.00
6486;DHT22;3276;48.490;9.222;2023-04-24T16:27:49;13.00;1.00
6486;DHT22;3276;48.490;9.222;2023-04-24T16:30:17;13.10;1.00
6486;DHT22;3276;48.490;9.222;2023-04-24T16:32:42;13.00;1.00
6486;DHT22;3276;48.490;9.222;2023-04-24T16:35:08;12.80;1.00
6486;DHT22;3276;48.490;9.222;2023-04-24T16:37:34;12.80;1.00
6486;DHT22;3276;48.490;9.222;2023-04-24T16:39:59;12.80;1.00
6486;DHT22;3276;48.490;9.222;2023-04-24T16:42:25;12.60;1.00
6486;DHT22;3276;48.490;9.222;2023-04-24T16:44:52;12.60;1.00
6486;DHT22;3276;48.490;9.222;2023-04-24T16:47:18;12.60;1.00
6486;DHT22;3276;48.490;9.222;2023-04-24T16:49:43;12.60;1.00
6486;DHT22;3276;48.490;9.222;2023-04-24T16:52:10;12.60;1.00
6486;DHT22;3276;48.490;9.222;2023-04-24T16:54:36;12.50;1.00
6486;DHT22;3276;48.490;9.222;2023-04-24T16:57:03;12.40;1.00
6486;DHT22;3276;48.490;9.222;2023-04-24T16:59:29;12.50;1.00
6486;DHT22;3276;48.490;9.222;2023-04-24T17:02:01;12.60;1.00
6486;DHT22;3276;48.490;9.222;2023-04-24T17:04:27;12.70;1.00
6486;DHT22;3276;48.490;9.222;2023-04-24T17:06:53;12.70;1.00
6486;DHT22;3276;48.490;9.222;2023-04-24T17:09:18;12.60;1.00
6486;DHT22;3276;48.490;9.222;2023-04-24T17:11:45;12.50;1.00
6486;DHT22;3276;48.490;9.222;2023-04-24T17:14:10;12.40;1.00
6486;DHT22;3276;48.490;9.222;2023-04-24T17:16:36;12.40;1.00
6486;DHT22;3276;48.490;9.222;2023-04-24T17:19:03;12.30;1.00
6486;DHT22;3276;48.490;9.222;2023-04-24T18:05:27;10.80;1.70
6486;DHT22;3276;48.490;9.222;2023-04-24T18:07:53;10.80;2.20
6486;DHT22;3276;48.490;9.222;2023-04-24T18:10:19;10.70;2.80
6486;DHT22;3276;48.490;9.222;2023-04-24T18:12:45;10.60;3.50
6486;DHT22;3276;48.490;9.222;2023-04-24T19:03:56;10.50;3.60
6486;DHT22;3276;48.490;9.222;2023-04-24T19:06:21;10.10;9.30
6486;DHT22;3276;48.490;9.222;2023-04-24T19:08:47;10.00;9.70
6486;DHT22;3276;48.490;9.222;2023-04-24T19:11:13;9.90;10.30
6486;DHT22;3276;48.490;9.222;2023-04-24T19:13:38;10.00;10.30
6486;DHT22;3276;48.490;9.222;2023-04-24T19:16:04;9.90;11.40
6486;DHT22;3276;48.490;9.222;2023-04-24T19:18:29;9.80;12.10
6486;DHT22;3276;48.490;9.222;2023-04-24T19:20:55;9.80;12.30
6486;DHT22;3276;48.490;9.222;2023-04-24T19:23:21;9.80;13.30
6486;DHT22;3276;48.490;9.222;2023-04-24T19:25:49;9.80;13.50
6486;DHT22;3276;48.490;9.222;2023-04-24T19:28:15;9.80;13.60
6486;DHT22;3276;48.490;9.222;2023-04-24T19:30:41;9.80;14.20
6486;DHT22;3276;48.490;9.222;2023-04-24T19:33:06;9.70;14.60
6486;DHT22;3276;48.490;9.222;2023-04-24T19:35:32;9.70;14.60
6486;DHT22;3276;48.490;9.222;2023-04-24T19:38:00;9.70;14.60
6486;DHT22;3276;48.490;9.222;2023-04-24T19:40:26;9.60;14.50
6486;DHT22;3276;48.490;9.222;2023-04-24T19:42:52;9.50;14.90
6486;DHT22;3276;48.490;9.222;2023-04-24T19:45:17;9.60;15.30
6486;DHT22;3276;48.490;9.222;2023-04-24T19:47:44;9.60;15.60
6486;DHT22;3276;48.490;9.222;2023-04-24T19:50:10;9.60;15.20
6486;DHT22;3276;48.490;9.222;2023-04-24T19:52:35;9.60;14.80
6486;DHT22;3276;48.490;9.222;2023-04-24T19:55:01;9.60;14.90
6486;DHT22;3276;48.490;9.222;2023-04-24T19:57:27;9.60;14.50
6486;DHT22;3276;48.490;9.222;2023-04-24T19:59:52;9.60;14.50
6486;DHT22;3276;48.490;9.222;2023-04-24T20:02:18;9.70;14.50
6486;DHT22;3276;48.490;9.222;2023-04-24T20:04:43;9.60;14.40
6486;DHT22;3276;48.490;9.222;2023-04-24T20:07:09;9.50;14.70
6486;DHT22;3276;48.490;9.222;2023-04-24T20:09:35;9.40;14.90
6486;DHT22;3276;48.490;9.222;2023-04-24T20:12:00;9.30;15.30
6486;DHT22;3276;48.490;9.222;2023-04-24T20:14:27;9.30;16.40
6486;DHT22;3276;48.490;9.222;2023-04-24T20:16:52;9.20;16.00
6486;DHT22;3276;48.490;9.222;2023-04-24T20:19:19;9.30;16.20
6486;DHT22;3276;48.490;9.222;2023-04-24T20:21:44;9.30;16.20
6486;DHT22;3276;48.490;9.222;2023-04-24T20:24:10;9.20;16.40
6486;DHT22;3276;48.490;9.222;2023-04-24T20:26:36;9.10;16.40
6486;DHT22;3276;48.490;9.222;2023-04-24T20:29:02;9.00;16.40
6486;DHT22;3276;48.490;9.222;2023-04-24T20:31:28;9.10;16.40
6486;DHT22;3276;48.490;9.222;2023-04-24T20:33:54;9.00;16.30
6486;DHT22;3276;48.490;9.222;2023-04-24T20:36:19;9.00;16.40
6486;DHT22;3276;48.490;9.222;2023-04-24T20:38:45;9.00;16.10
6486;DHT22;3276;48.490;9.222;2023-04-24T20:41:11;9.00;16.40
6486;DHT22;3276;48.490;9.222;2023-04-24T20:43:37;8.90;16.20
6486;DHT22;3276;48.490;9.222;2023-04-24T20:46:03;8.90;16.20
6486;DHT22;3276;48.490;9.222;2023-04-24T20:48:29;8.80;16.30
6486;DHT22;3276;48.490;9.222;2023-04-24T20:50:54;8.70;16.70
6486;DHT22;3276;48.490;9.222;2023-04-24T20:53:20;8.60;17.00
6486;DHT22;3276;48.490;9.222;2023-04-24T20:55:46;8.60;17.50
6486;DHT22;3276;48.490;9.222;2023-04-24T20:58:12;8.60;18.20
6486;DHT22;3276;48.490;9.222;2023-04-24T21:00:38;8.50;18.70
6486;DHT22;3276;48.490;9.222;2023-04-24T21:03:03;8.40;18.70
6486;DHT22;3276;48.490;9.222;2023-04-24T21:05:29;8.30;19.90
6486;DHT22;3276;48.490;9.222;2023-04-24T21:07:55;8.20;20.10
6486;DHT22;3276;48.490;9.222;2023-04-24T21:10:24;8.10;21.00
6486;DHT22;3276;48.490;9.222;2023-04-24T21:12:51;8.00;21.50
6486;DHT22;3276;48.490;9.222;2023-04-24T21:15:16;7.90;22.00
6486;DHT22;3276;48.490;9.222;2023-04-24T21:17:42;7.80;22.60
6486;DHT22;3276;48.490;9.222;2023-04-24T21:32:18;7.70;23.50
6486;DHT22;3276;48.490;9.222;2023-04-24T21:34:44;7.40;25.90
6486;DHT22;3276;48.490;9.222;2023-04-24T21:37:09;7.30;26.90
6486;DHT22;3276;48.490;9.222;2023-04-24T22:28:18;7.30;27.30
6486;DHT22;3276;48.490;9.222;2023-04-24T22:30:44;6.90;27.40
6486;DHT22;3276;48.490;9.222;2023-04-24T22:33:10;6.90;27.30
6486;DHT22;3276;48.490;9.222;2023-04-24T22:45:20;6.80;27.00
6486;DHT22;3276;48.490;9.222;2023-04-24T22:47:51;6.70;27.40
6486;DHT22;3276;48.490;9.222;2023-04-24T22:50:18;6.60;27.00
6486;DHT22;3276;48.490;9.222;2023-04-24T22:52:45;6.60;27.40
6486;DHT22;3276;48.490;9.222;2023-04-24T22:55:10;6.60;27.10
6486;DHT22;3276;48.490;9.222;2023-04-24T22:57:36;6.60;26.70
6486;DHT22;3276;48.490;9.222;2023-04-24T23:00:03;6.70;25.80
6486;DHT22;3276;48.490;9.222;2023-04-24T23:02:33;6.80;25.80
6486;DHT22;3276;48.490;9.222;2023-04-24T23:04:59;6.80;26.10
6486;DHT22;3276;48.490;9.222;2023-04-24T23:07:24;6.70;26.10
6486;DHT22;3276;48.490;9.222;2023-04-24T23:14:42;6.70;26.50
6486;DHT22;3276;48.490;9.222;2023-04-24T23:17:08;6.90;26.10
6486;DHT22;3276;48.490;9.222;2023-04-24T23:19:34;7.00;25.70
6486;DHT22;3276;48.490;9.222;2023-04-24T23:21:59;7.00;25.40
6486;DHT22;3276;48.490;9.222;2023-04-24T23:24:25;7.10;25.40
6486;DHT22;3276;48.490;9.222;2023-04-24T23:26:51;7.10;24.70
6486;DHT22;3276;48.490;9.222;2023-04-24T23:29:16;7.20;24.10